Time;durP1;ratioP1;P1;durP2;ratioP2;P2;SDS_P1;SDS_P2;PMS_P1;PMS_P2;Temp;Humidity;BMP_temperature;BMP_pressure;BME280_temperature;BME280_humidity;BME280_pressure;Samples;Min_cycle;Max_cycle;Signal;HPM_P1;HPM_P2
2023/11/18 00:01:48;;;;;;;4.68;4.28;;;15.50;65.30;;;;;;5134540;27;20196;-65
2023/11/18 00:04:16;;;;;;;5.00;4.60;;;15.50;65.20;;;;;;5134163;27;20196;-64
2023/11/18 00:06:45;;;;;;;4.63;4.22;;;15.50;65.20;;;;;;5133717;27;20190;-65
2023/11/18 00:09:14;;;;;;;4.95;4.55;;;15.50;65.40;;;;;;5134075;27;20180;-66
2023/11/18 00:11:43;;;;;;;4.22;3.92;;;15.50;65.40;;;;;;5134537;27;20173;-65
2023/11/18 00:14:11;;;;;;;4.85;4.45;;;15.50;65.30;;;;;;5133233;27;20521;-65
2023/11/18 00:16:36;;;;;;;6.22;4.80;;;15.50;65.40;;;;;;5134391;27;20237;-65
2023/11/18 00:19:04;;;;;;;5.43;4.93;;;15.50;65.30;;;;;;5133787;27;20627;-65
2023/11/18 00:21:30;;;;;;;5.43;4.93;;;15.40;65.40;;;;;;5133038;27;20222;-65
2023/11/18 00:23:56;;;;;;;5.03;4.53;;;15.50;66.20;;;;;;5134038;27;20196;-66
2023/11/18 00:26:21;;;;;;;5.07;4.68;;;15.40;65.40;;;;;;5133978;27;20567;-66
2023/11/18 00:28:48;;;;;;;5.05;4.65;;;15.40;65.20;;;;;;5133337;27;20570;-65
2023/11/18 00:31:14;;;;;;;4.93;4.53;;;15.40;65.30;;;;;;5133738;27;20184;-65
2023/11/18 00:33:39;;;;;;;4.78;4.38;;;15.40;65.30;;;;;;5133841;27;20219;-66
2023/11/18 00:36:06;;;;;;;5.07;4.65;;;15.40;65.20;;;;;;5132861;27;20180;-66
2023/11/18 00:38:32;;;;;;;5.45;4.95;;;15.40;65.40;;;;;;5133781;27;20181;-66
2023/11/18 00:40:57;;;;;;;4.72;4.30;;;15.40;65.20;;;;;;5133208;27;20297;-65
2023/11/18 00:43:23;;;;;;;4.38;3.95;;;15.40;65.40;;;;;;5133786;27;20208;-64
2023/11/18 00:45:48;;;;;;;5.65;4.93;;;15.40;65.50;;;;;;5133918;27;20241;-65
2023/11/18 00:48:14;;;;;;;5.00;4.50;;;15.40;66.30;;;;;;5132679;27;20342;-64
2023/11/18 00:50:40;;;;;;;5.10;4.68;;;15.40;65.40;;;;;;5133637;27;20361;-65
2023/11/18 00:53:05;;;;;;;5.72;5.22;;;15.40;65.40;;;;;;5133086;27;20211;-64
2023/11/18 00:55:31;;;;;;;5.10;4.70;;;15.30;65.40;;;;;;5133198;27;20268;-65
2023/11/18 00:57:58;;;;;;;5.00;4.60;;;15.30;65.40;;;;;;5133640;27;20188;-65
2023/11/18 01:00:26;;;;;;;4.88;4.47;;;15.40;65.50;;;;;;5133395;27;20252;-65
2023/11/18 01:02:53;;;;;;;5.43;4.82;;;15.30;65.50;;;;;;5132830;27;20180;-65
2023/11/18 01:05:19;;;;;;;4.88;4.47;;;15.30;65.50;;;;;;5133144;27;20207;-65
2023/11/18 01:07:44;;;;;;;4.57;4.28;;;15.30;65.50;;;;;;5133268;27;20181;-66
2023/11/18 01:10:10;;;;;;;4.70;4.30;;;15.30;65.50;;;;;;5132517;27;20169;-65
2023/11/18 01:12:36;;;;;;;4.95;4.55;;;15.30;65.60;;;;;;5133419;27;20205;-65
2023/11/18 01:15:02;;;;;;;5.15;4.68;;;15.30;65.60;;;;;;5132912;27;20684;-64
2023/11/18 01:17:29;;;;;;;5.10;4.70;;;15.30;65.50;;;;;;5132517;27;20185;-64
2023/11/18 01:19:54;;;;;;;4.93;4.53;;;15.30;65.50;;;;;;5133342;27;20188;-64
2023/11/18 01:22:21;;;;;;;5.90;5.30;;;15.20;65.40;;;;;;5132708;27;20226;-65
2023/11/18 01:24:47;;;;;;;5.00;4.60;;;15.20;65.50;;;;;;5132458;27;20646;-65
2023/11/18 01:27:12;;;;;;;4.63;4.18;;;15.30;65.60;;;;;;5132941;27;20259;-64
2023/11/18 01:29:39;;;;;;;4.88;4.35;;;15.30;65.60;;;;;;5133079;28;20168;-64
2023/11/18 01:32:09;;;;;;;4.97;4.50;;;15.20;65.60;;;;;;5131002;27;20172;-65
2023/11/18 01:34:39;;;;;;;4.93;4.35;;;15.20;65.50;;;;;;5132995;28;20201;-65
2023/11/18 01:37:07;;;;;;;5.10;4.70;;;15.20;65.60;;;;;;5132728;28;20634;-65
2023/11/18 01:39:33;;;;;;;5.10;4.60;;;15.20;65.60;;;;;;5132517;28;20180;-65
2023/11/18 01:41:59;;;;;;;5.10;4.68;;;15.20;65.60;;;;;;5132704;28;20177;-65
2023/11/18 01:44:25;;;;;;;4.63;4.22;;;15.20;65.60;;;;;;5132284;28;20183;-64
2023/11/18 01:46:50;;;;;;;4.60;4.20;;;15.20;65.60;;;;;;5133013;28;20173;-64
2023/11/18 01:49:17;;;;;;;4.65;4.28;;;15.20;65.60;;;;;;5114063;28;20219;-64
2023/11/18 01:51:43;;;;;;;4.90;4.50;;;15.20;65.70;;;;;;5132411;28;20176;-64
2023/11/18 01:54:09;;;;;;;4.80;4.40;;;15.20;65.60;;;;;;5114346;28;20211;-65
2023/11/18 01:56:37;;;;;;;4.30;4.00;;;15.20;65.70;;;;;;5115007;28;20172;-65
2023/11/18 01:59:04;;;;;;;5.38;4.88;;;15.20;65.70;;;;;;5113610;28;20172;-65
2023/11/18 02:01:30;;;;;;;4.90;4.50;;;15.10;65.70;;;;;;5132727;28;20161;-65
2023/11/18 02:03:56;;;;;;;4.80;4.40;;;15.10;65.60;;;;;;5132706;28;20194;-64
2023/11/18 02:06:21;;;;;;;5.25;4.75;;;15.20;65.80;;;;;;5131660;28;20176;-65
2023/11/18 02:08:47;;;;;;;5.82;4.97;;;15.10;65.70;;;;;;5114370;28;20172;-65
2023/11/18 02:11:31;;;;;;;5.28;4.88;;;15.10;65.70;;;;;;5114258;28;20176;-65
2023/11/18 02:13:56;;;;;;;4.90;4.50;;;15.10;65.80;;;;;;5132034;28;20216;-64
2023/11/18 02:16:22;;;;;;;4.82;4.43;;;15.10;65.80;;;;;;5097061;28;20169;-64
2023/11/18 02:18:49;;;;;;;5.25;4.75;;;15.10;65.70;;;;;;5114516;28;20272;-64
2023/11/18 02:21:14;;;;;;;4.85;4.40;;;15.10;65.80;;;;;;5113574;28;20208;-64
2023/11/18 02:23:42;;;;;;;5.28;4.88;;;15.10;65.70;;;;;;5114474;28;20697;-65
2023/11/18 02:26:08;;;;;;;5.22;4.72;;;15.10;65.70;;;;;;5132278;28;20177;-65
2023/11/18 02:28:33;;;;;;;4.93;4.53;;;15.10;65.70;;;;;;5131919;28;20205;-65
2023/11/18 02:31:09;;;;;;;5.07;4.57;;;15.10;65.80;;;;;;5132088;28;20616;-64
2023/11/18 02:33:50;;;;;;;5.32;4.88;;;15.10;65.70;;;;;;5113333;28;20734;-65
2023/11/18 02:36:37;;;;;;;5.78;5.13;;;15.10;65.80;;;;;;5099013;28;20706;-65
2023/11/18 02:39:08;;;;;;;5.40;4.90;;;15.00;65.80;;;;;;5132302;28;20172;-64
2023/11/18 02:41:35;;;;;;;6.05;5.45;;;15.00;65.80;;;;;;5131700;28;20173;-65
2023/11/18 02:44:08;;;;;;;5.38;4.88;;;15.00;65.80;;;;;;5115745;27;20225;-64
2023/11/18 02:46:40;;;;;;;5.55;4.97;;;15.00;65.70;;;;;;5136159;27;20188;-64
2023/11/18 02:49:05;;;;;;;5.78;5.18;;;15.10;65.80;;;;;;5116646;27;20228;-65
2023/11/18 02:51:31;;;;;;;5.63;5.03;;;15.00;65.80;;;;;;5117766;27;20259;-65
2023/11/18 02:53:57;;;;;;;5.13;4.63;;;15.10;65.90;;;;;;5135751;27;20287;-65
2023/11/18 02:56:22;;;;;;;5.80;5.30;;;15.00;65.80;;;;;;5117019;27;20168;-65
2023/11/18 02:58:48;;;;;;;6.00;5.50;;;15.00;65.90;;;;;;5135982;27;20619;-65
2023/11/18 03:01:14;;;;;;;5.38;4.97;;;15.00;65.80;;;;;;5135653;27;20168;-65
2023/11/18 03:03:39;;;;;;;5.65;5.15;;;15.00;65.80;;;;;;5134993;27;20248;-65
2023/11/18 03:06:06;;;;;;;5.55;5.05;;;15.00;65.90;;;;;;5135268;27;20279;-66
2023/11/18 03:08:31;;;;;;;6.32;5.72;;;15.00;65.80;;;;;;5135517;27;20715;-65
2023/11/18 03:10:58;;;;;;;6.05;5.45;;;15.00;65.90;;;;;;5135053;27;20196;-65
2023/11/18 03:13:24;;;;;;;6.57;5.97;;;15.00;65.80;;;;;;5135595;27;20211;-64
2023/11/18 03:15:50;;;;;;;6.63;6.03;;;15.00;65.90;;;;;;5134915;27;20172;-64
2023/11/18 03:18:16;;;;;;;5.97;5.38;;;15.00;65.90;;;;;;5135069;27;20180;-65
2023/11/18 03:20:41;;;;;;;5.55;4.95;;;15.00;65.90;;;;;;5117252;27;20179;-64
2023/11/18 03:23:10;;;;;;;5.75;5.25;;;15.00;65.90;;;;;;5134310;27;20172;-65
2023/11/18 03:25:35;;;;;;;6.32;5.72;;;15.00;65.90;;;;;;5135419;27;20595;-65
2023/11/18 03:28:01;;;;;;;6.43;5.93;;;14.90;65.80;;;;;;5135011;27;20639;-65
2023/11/18 03:30:28;;;;;;;6.22;5.60;;;14.90;65.90;;;;;;5134682;27;20181;-65
2023/11/18 03:32:54;;;;;;;6.68;6.03;;;14.90;65.90;;;;;;5135041;27;20212;-65
2023/11/18 03:35:19;;;;;;;5.97;5.38;;;14.90;65.90;;;;;;5134940;27;20173;-65
2023/11/18 03:37:45;;;;;;;6.20;5.55;;;15.00;66.00;;;;;;5134300;27;20619;-65
2023/11/18 03:40:12;;;;;;;6.10;5.50;;;14.90;65.90;;;;;;5134663;27;20682;-65
2023/11/18 03:42:39;;;;;;;6.10;5.05;;;14.90;66.00;;;;;;5135133;27;20177;-65
2023/11/18 03:45:05;;;;;;;6.32;5.72;;;14.90;66.00;;;;;;5133870;27;20594;-64
2023/11/18 03:47:31;;;;;;;6.53;5.93;;;14.90;66.00;;;;;;5134837;27;20636;-64
2023/11/18 03:49:57;;;;;;;6.35;5.75;;;14.90;66.00;;;;;;5134784;27;20256;-65
2023/11/18 03:52:23;;;;;;;6.15;5.57;;;14.90;66.10;;;;;;5133757;27;20650;-64
2023/11/18 03:54:49;;;;;;;6.80;6.20;;;14.90;66.00;;;;;;5134068;27;20305;-65
2023/11/18 03:57:15;;;;;;;6.53;5.93;;;14.90;65.90;;;;;;5134461;27;20640;-65
2023/11/18 03:59:43;;;;;;;6.40;5.80;;;14.90;66.10;;;;;;5133991;27;20169;-65
2023/11/18 04:02:10;;;;;;;6.32;5.35;;;14.90;66.00;;;;;;5134273;27;20262;-65
2023/11/18 04:04:36;;;;;;;6.60;5.90;;;14.90;66.20;;;;;;5134393;27;20255;-65
2023/11/18 04:07:02;;;;;;;6.55;5.95;;;14.90;66.10;;;;;;5133431;27;20259;-66
2023/11/18 04:09:28;;;;;;;7.32;6.13;;;14.80;66.00;;;;;;5134350;27;20164;-65
2023/11/18 04:11:53;;;;;;;7.80;6.45;;;14.90;66.10;;;;;;5134229;27;20180;-65
2023/11/18 04:14:19;;;;;;;6.80;6.20;;;14.90;66.10;;;;;;5133786;27;20173;-65
2023/11/18 04:16:45;;;;;;;6.82;6.07;;;14.90;66.20;;;;;;5134319;27;20173;-64
2023/11/18 04:19:11;;;;;;;6.93;6.32;;;14.90;66.10;;;;;;5133327;27;20168;-64
2023/11/18 04:21:38;;;;;;;7.80;6.60;;;14.90;66.10;;;;;;5134475;27;20221;-64
2023/11/18 04:24:05;;;;;;;6.50;5.90;;;14.90;66.30;;;;;;5133741;27;20176;-64
2023/11/18 04:26:31;;;;;;;7.43;6.63;;;14.80;66.20;;;;;;5133577;27;20177;-65
2023/11/18 04:28:57;;;;;;;6.88;6.18;;;14.90;66.10;;;;;;5134090;27;20176;-64
2023/11/18 04:31:23;;;;;;;7.50;6.70;;;14.80;66.20;;;;;;5133746;27;20181;-64
2023/11/18 04:33:48;;;;;;;6.97;6.28;;;14.80;66.30;;;;;;5133205;27;20209;-65
2023/11/18 04:36:16;;;;;;;7.28;6.57;;;14.80;66.30;;;;;;5133504;27;20172;-66
2023/11/18 04:38:41;;;;;;;7.03;6.32;;;14.80;66.30;;;;;;5133776;27;20184;-65
2023/11/18 04:41:07;;;;;;;7.07;6.40;;;14.80;66.30;;;;;;5133201;27;20183;-65
2023/11/18 04:43:32;;;;;;;7.10;6.40;;;14.80;66.30;;;;;;5133908;27;20217;-65
2023/11/18 04:45:59;;;;;;;7.55;6.85;;;14.80;66.30;;;;;;5133535;27;20160;-65
2023/11/18 04:48:24;;;;;;;7.25;6.30;;;14.80;66.40;;;;;;5132751;27;20227;-65
2023/11/18 04:50:50;;;;;;;7.00;6.30;;;14.80;66.30;;;;;;5133875;27;20172;-65
2023/11/18 04:53:17;;;;;;;7.47;6.40;;;14.80;66.30;;;;;;5133354;27;20366;-65
2023/11/18 04:55:42;;;;;;;7.63;6.93;;;14.80;66.40;;;;;;5132894;27;20706;-66
2023/11/18 04:58:09;;;;;;;8.98;7.53;;;14.80;66.40;;;;;;5133270;27;20183;-65
2023/11/18 05:00:38;;;;;;;7.72;6.72;;;14.70;66.30;;;;;;5133576;27;20168;-65
2023/11/18 05:03:05;;;;;;;8.52;7.70;;;14.80;66.40;;;;;;5132343;27;20180;-66
2023/11/18 05:05:30;;;;;;;7.30;6.60;;;14.80;66.30;;;;;;5133668;27;20251;-65
2023/11/18 05:07:56;;;;;;;7.60;6.80;;;14.70;66.30;;;;;;5133212;27;20724;-65
2023/11/18 05:10:21;;;;;;;7.10;6.40;;;14.80;66.50;;;;;;5132446;27;20187;-65
2023/11/18 05:12:55;;;;;;;7.40;6.70;;;14.80;66.40;;;;;;5133499;27;20612;-65
2023/11/18 05:15:24;;;;;;;6.93;6.22;;;14.80;66.50;;;;;;5132254;27;20176;-65
2023/11/18 05:17:50;;;;;;;6.82;6.22;;;14.70;66.40;;;;;;5133211;27;20229;-65
2023/11/18 05:20:16;;;;;;;7.53;6.82;;;14.80;66.40;;;;;;5133077;27;20169;-65
2023/11/18 05:22:41;;;;;;;8.07;6.80;;;14.70;66.40;;;;;;5132661;27;20572;-65
2023/11/18 05:25:08;;;;;;;7.78;6.85;;;14.70;66.40;;;;;;5132801;27;20601;-65
2023/11/18 05:27:33;;;;;;;6.90;6.20;;;14.70;66.50;;;;;;5133188;27;20560;-65
2023/11/18 05:29:59;;;;;;;9.05;6.97;;;14.70;66.50;;;;;;5132127;28;20168;-65
2023/11/18 05:32:34;;;;;;;8.55;7.20;;;14.70;66.40;;;;;;5132949;28;20725;-65
2023/11/18 05:34:59;;;;;;;7.65;6.85;;;14.70;66.40;;;;;;5132931;28;20591;-64
2023/11/18 05:37:25;;;;;;;7.30;6.60;;;14.70;66.50;;;;;;5132528;28;20698;-65
2023/11/18 05:39:59;;;;;;;7.72;6.93;;;14.70;66.50;;;;;;5133056;28;20649;-65
2023/11/18 05:42:27;;;;;;;7.95;7.15;;;14.70;66.30;;;;;;5132578;28;20184;-65
2023/11/18 05:44:59;;;;;;;8.07;7.05;;;14.70;66.50;;;;;;5132044;28;20341;-64
2023/11/18 05:47:25;;;;;;;7.30;6.53;;;14.70;66.60;;;;;;5133145;28;20252;-64
2023/11/18 05:49:57;;;;;;;7.07;6.38;;;14.70;66.60;;;;;;5132859;28;20231;-64
2023/11/18 05:52:23;;;;;;;7.85;7.05;;;15.10;66.80;;;;;;5132140;28;20212;-65
2023/11/18 05:54:48;;;;;;;7.22;6.60;;;14.70;66.60;;;;;;5132911;28;20564;-65
2023/11/18 05:57:17;;;;;;;6.93;6.28;;;14.70;66.60;;;;;;5132494;28;20248;-66
2023/11/18 05:59:43;;;;;;;7.32;6.63;;;14.70;66.70;;;;;;5132376;28;20177;-66
2023/11/18 06:02:13;;;;;;;7.78;7.07;;;14.60;66.50;;;;;;5132734;28;20650;-64
2023/11/18 06:04:38;;;;;;;6.60;6.03;;;14.60;66.60;;;;;;5132166;28;20172;-66
2023/11/18 06:07:04;;;;;;;6.88;6.25;;;14.70;66.70;;;;;;5132433;28;20221;-66
2023/11/18 06:09:30;;;;;;;8.65;6.70;;;14.70;66.60;;;;;;5132713;28;20187;-65
2023/11/18 06:12:00;;;;;;;8.13;6.85;;;14.70;66.60;;;;;;5131989;28;20255;-65
2023/11/18 06:14:26;;;;;;;6.40;5.80;;;14.80;66.50;;;;;;5132959;28;20224;-64
2023/11/18 06:16:52;;;;;;;7.30;6.32;;;14.90;66.50;;;;;;5132580;28;20230;-64
2023/11/18 06:19:17;;;;;;;6.53;5.78;;;14.90;66.30;;;;;;5134330;27;20180;-64
2023/11/18 06:21:43;;;;;;;6.93;6.28;;;15.00;66.30;;;;;;5136678;27;20300;-65
2023/11/18 06:24:11;;;;;;;6.88;5.72;;;15.10;66.00;;;;;;5136037;27;20168;-65
2023/11/18 06:26:36;;;;;;;6.40;5.80;;;15.30;65.90;;;;;;5135725;27;20172;-64
2023/11/18 06:29:02;;;;;;;7.28;6.57;;;15.40;65.70;;;;;;5136046;27;20206;-65
2023/11/18 06:31:29;;;;;;;6.75;5.82;;;15.50;65.50;;;;;;5136578;27;20172;-65
2023/11/18 06:33:54;;;;;;;5.82;5.32;;;15.60;65.20;;;;;;5135567;27;20223;-64
2023/11/18 06:36:21;;;;;;;6.00;5.50;;;15.70;65.00;;;;;;5136067;27;20168;-64
2023/11/18 06:38:49;;;;;;;5.55;4.97;;;15.80;64.80;;;;;;5136297;27;20176;-64
2023/11/18 06:41:23;;;;;;;5.85;5.35;;;15.90;64.60;;;;;;5135169;27;20168;-66
2023/11/18 06:43:51;;;;;;;6.03;5.43;;;15.90;64.40;;;;;;5136329;27;20209;-65
2023/11/18 06:46:20;;;;;;;5.32;4.82;;;16.00;64.40;;;;;;5135961;27;20263;-65
2023/11/18 06:48:50;;;;;;;5.60;5.15;;;16.00;64.20;;;;;;5135302;27;20259;-64
2023/11/18 06:51:16;;;;;;;5.63;5.10;;;16.00;64.10;;;;;;5135500;27;20176;-64
2023/11/18 06:53:43;;;;;;;5.25;4.60;;;16.10;64.10;;;;;;5135276;27;20218;-66
2023/11/18 06:56:09;;;;;;;5.57;5.07;;;16.10;64.10;;;;;;5135757;27;20225;-66
2023/11/18 06:58:37;;;;;;;5.35;4.85;;;16.20;63.90;;;;;;5136001;27;20263;-65
2023/11/18 07:01:05;;;;;;;5.50;4.75;;;16.20;63.70;;;;;;5134801;27;20173;-65
2023/11/18 07:03:31;;;;;;;4.47;4.07;;;16.20;63.80;;;;;;5135657;27;20181;-65
2023/11/18 07:05:57;;;;;;;5.32;4.82;;;16.30;63.70;;;;;;5135725;27;20211;-66
2023/11/18 07:08:22;;;;;;;5.20;4.70;;;16.20;63.60;;;;;;5134996;27;20180;-65
2023/11/18 07:10:48;;;;;;;5.10;4.60;;;16.20;63.80;;;;;;5135726;27;20533;-65
2023/11/18 07:13:14;;;;;;;4.85;4.45;;;16.20;63.90;;;;;;5135014;27;20204;-64
2023/11/18 07:15:41;;;;;;;5.25;4.75;;;16.20;64.00;;;;;;5134897;27;20173;-64
2023/11/18 07:18:08;;;;;;;4.63;4.22;;;16.30;63.90;;;;;;5135222;27;20271;-64
2023/11/18 07:20:34;;;;;;;4.95;4.53;;;16.50;63.60;;;;;;5135310;27;20176;-64
2023/11/18 07:23:00;;;;;;;5.40;4.90;;;16.70;63.20;;;;;;5134366;27;20184;-64
2023/11/18 07:25:25;;;;;;;4.55;4.13;;;16.90;62.60;;;;;;5135383;27;20186;-65
2023/11/18 07:27:51;;;;;;;4.13;3.80;;;17.10;61.90;;;;;;5135427;27;20184;-65
2023/11/18 07:30:18;;;;;;;4.72;4.32;;;17.30;61.30;;;;;;5133007;27;20982;-65
2023/11/18 07:32:43;;;;;;;4.40;4.00;;;17.50;60.90;;;;;;5135091;27;20211;-64
2023/11/18 07:35:09;;;;;;;4.00;3.70;;;17.60;60.50;;;;;;5134701;27;20528;-65
2023/11/18 07:37:36;;;;;;;4.32;3.92;;;17.60;60.40;;;;;;5134475;27;20228;-65
2023/11/18 07:40:04;;;;;;;4.50;4.10;;;17.70;60.40;;;;;;5134701;27;20606;-64
2023/11/18 07:42:34;;;;;;;4.05;3.63;;;17.70;60.20;;;;;;5135132;27;20603;-63
2023/11/18 07:45:03;;;;;;;4.50;4.10;;;17.70;60.20;;;;;;5133919;27;20272;-64
2023/11/18 07:47:31;;;;;;;4.32;4.00;;;17.80;60.20;;;;;;5134855;27;20179;-65
2023/11/18 07:49:57;;;;;;;4.85;4.45;;;17.70;60.10;;;;;;5134252;27;20231;-65
2023/11/18 07:52:23;;;;;;;4.20;3.80;;;17.70;60.30;;;;;;5134515;27;20204;-64
2023/11/18 07:54:49;;;;;;;4.82;4.43;;;17.70;60.20;;;;;;5134923;27;20177;-65
2023/11/18 07:57:14;;;;;;;4.30;3.90;;;17.70;60.30;;;;;;5133786;27;20173;-65
2023/11/18 07:59:40;;;;;;;4.45;4.05;;;17.70;60.30;;;;;;5134640;27;20530;-65
2023/11/18 08:02:09;;;;;;;3.80;3.50;;;17.70;60.30;;;;;;5134298;27;20183;-66
2023/11/18 08:04:35;;;;;;;4.13;3.72;;;17.70;60.30;;;;;;5133951;27;20176;-65
2023/11/18 08:07:00;;;;;;;4.53;4.13;;;17.70;60.30;;;;;;5134466;27;20173;-66
2023/11/18 08:09:26;;;;;;;4.55;3.65;;;17.60;60.40;;;;;;5134613;27;20176;-65
2023/11/18 08:11:54;;;;;;;4.30;3.92;;;17.60;60.40;;;;;;5133780;27;20177;-64
2023/11/18 08:14:21;;;;;;;4.38;3.97;;;17.60;60.50;;;;;;5134091;27;20241;-65
2023/11/18 08:16:47;;;;;;;3.70;3.40;;;17.60;60.30;;;;;;5134367;27;20164;-65
2023/11/18 08:19:12;;;;;;;4.13;3.70;;;17.60;60.50;;;;;;5133116;27;20678;-65
2023/11/18 08:21:41;;;;;;;4.10;3.80;;;17.60;60.50;;;;;;5134476;27;20272;-65
2023/11/18 08:24:08;;;;;;;3.95;3.65;;;17.60;60.70;;;;;;5133935;27;20172;-65
2023/11/18 08:26:34;;;;;;;4.32;3.92;;;17.50;60.80;;;;;;5133465;27;20169;-65
2023/11/18 08:29:00;;;;;;;3.83;3.53;;;17.40;61.00;;;;;;5133813;27;20180;-65
2023/11/18 08:31:26;;;;;;;4.50;4.10;;;17.30;61.30;;;;;;5133936;27;20180;-65
2023/11/18 08:33:54;;;;;;;4.20;3.80;;;17.20;61.40;;;;;;5133344;27;20629;-65
2023/11/18 08:36:20;;;;;;;4.00;3.70;;;17.10;61.70;;;;;;5133535;27;20177;-65
2023/11/18 08:38:47;;;;;;;4.15;3.75;;;17.10;61.70;;;;;;5133923;27;20184;-65
2023/11/18 08:41:12;;;;;;;5.18;4.70;;;17.10;61.70;;;;;;5132384;27;20173;-66
2023/11/18 08:43:40;;;;;;;4.18;3.85;;;17.10;61.90;;;;;;5133859;27;20225;-64
2023/11/18 08:46:07;;;;;;;4.50;4.10;;;17.10;62.10;;;;;;5133343;27;20204;-64
2023/11/18 08:48:36;;;;;;;4.35;4.05;;;17.00;62.00;;;;;;5132717;27;20682;-64
2023/11/18 08:51:07;;;;;;;4.20;3.72;;;17.00;62.00;;;;;;5133592;27;20196;-65
2023/11/18 08:53:40;;;;;;;4.65;4.10;;;17.00;62.10;;;;;;5133021;27;20208;-65
2023/11/18 08:56:07;;;;;;;3.85;3.45;;;17.00;62.10;;;;;;5133225;27;20223;-65
2023/11/18 08:58:34;;;;;;;4.68;4.07;;;17.00;62.20;;;;;;5133468;27;20184;-65
2023/11/18 09:01:13;;;;;;;4.57;4.18;;;17.00;62.20;;;;;;5132410;27;20653;-65
2023/11/18 09:03:42;;;;;;;4.32;3.92;;;17.00;62.00;;;;;;5133400;27;20693;-65
2023/11/18 09:06:17;;;;;;;3.75;3.45;;;17.00;62.10;;;;;;5133126;27;20187;-64
2023/11/18 09:08:44;;;;;;;4.85;4.25;;;17.00;62.10;;;;;;5132710;27;20228;-65
2023/11/18 09:11:16;;;;;;;4.25;3.85;;;16.90;62.40;;;;;;5133291;27;20169;-64
2023/11/18 09:13:44;;;;;;;4.28;3.90;;;16.90;62.50;;;;;;5133475;27;20214;-64
2023/11/18 09:16:11;;;;;;;3.70;3.40;;;16.90;62.60;;;;;;5132447;27;20187;-64
2023/11/18 09:18:39;;;;;;;4.20;3.80;;;17.00;62.50;;;;;;5133213;27;20225;-65
2023/11/18 09:21:06;;;;;;;5.18;4.57;;;17.00;62.40;;;;;;5132968;27;20266;-65
2023/11/18 09:23:34;;;;;;;3.92;3.60;;;16.90;62.50;;;;;;5132419;27;20583;-66
2023/11/18 09:26:00;;;;;;;4.60;4.20;;;16.90;62.80;;;;;;5133065;27;20176;-65
2023/11/18 09:28:29;;;;;;;4.68;4.22;;;16.90;62.70;;;;;;5132727;27;20716;-65
2023/11/18 09:30:57;;;;;;;5.03;4.32;;;16.90;62.80;;;;;;5133303;27;20184;-65
2023/11/18 09:33:32;;;;;;;4.45;4.05;;;16.90;62.70;;;;;;5132966;27;20200;-64
2023/11/18 09:36:02;;;;;;;4.22;3.83;;;16.90;62.70;;;;;;5132104;28;20168;-65
2023/11/18 09:38:31;;;;;;;4.47;4.07;;;16.80;62.70;;;;;;5133207;28;20179;-66
2023/11/18 09:40:57;;;;;;;4.28;3.83;;;16.90;62.80;;;;;;5132681;28;20177;-66
2023/11/18 09:43:24;;;;;;;4.07;3.72;;;16.80;62.70;;;;;;5132290;28;20551;-65
2023/11/18 09:45:56;;;;;;;4.80;3.90;;;16.80;62.80;;;;;;5133230;28;20550;-65
2023/11/18 09:48:25;;;;;;;4.85;4.45;;;16.80;62.90;;;;;;5115235;28;20176;-64
2023/11/18 09:50:51;;;;;;;4.30;3.90;;;16.70;63.10;;;;;;5132577;28;20179;-64
2023/11/18 09:53:19;;;;;;;4.15;3.75;;;16.80;63.20;;;;;;5133764;27;20728;-64
2023/11/18 09:55:59;;;;;;;4.47;4.10;;;16.70;63.10;;;;;;5137345;27;20179;-65
2023/11/18 09:58:25;;;;;;;4.35;3.95;;;16.80;63.20;;;;;;5136320;27;20176;-65
2023/11/18 10:00:52;;;;;;;4.80;4.30;;;16.80;63.10;;;;;;5101746;27;20191;-65
2023/11/18 10:03:17;;;;;;;4.70;4.10;;;16.70;63.10;;;;;;5101474;27;20180;-65
2023/11/18 10:05:46;;;;;;;4.25;3.85;;;16.70;63.30;;;;;;5136087;27;20259;-65
2023/11/18 10:08:16;;;;;;;4.55;4.15;;;16.60;63.20;;;;;;5101849;27;20627;-65
2023/11/18 10:10:45;;;;;;;4.40;4.00;;;16.60;63.30;;;;;;5136136;27;20176;-65
2023/11/18 10:13:21;;;;;;;3.90;3.50;;;16.60;63.40;;;;;;5102146;27;20290;-64
2023/11/18 10:15:49;;;;;;;4.15;3.85;;;16.60;64.40;;;;;;5136873;27;20173;-64
2023/11/18 10:18:21;;;;;;;4.18;3.78;;;16.60;63.50;;;;;;5135742;27;20188;-65
2023/11/18 10:20:53;;;;;;;4.65;4.10;;;16.60;63.50;;;;;;5136760;27;20168;-66
2023/11/18 10:23:20;;;;;;;4.90;4.40;;;16.70;63.50;;;;;;5136175;27;20181;-64
2023/11/18 10:25:53;;;;;;;4.30;3.90;;;16.60;63.50;;;;;;5135767;27;20639;-65
2023/11/18 10:28:36;;;;;;;4.55;4.15;;;16.60;63.50;;;;;;5136115;27;20673;-64
2023/11/18 10:31:05;;;;;;;4.32;3.92;;;16.50;63.60;;;;;;5136277;27;20836;-64
2023/11/18 10:33:43;;;;;;;4.35;3.95;;;16.50;63.70;;;;;;5135516;27;20346;-64
2023/11/18 10:36:23;;;;;;;3.85;3.55;;;16.40;63.70;;;;;;5117683;27;20176;-65
2023/11/18 10:38:55;;;;;;;3.90;3.50;;;16.40;63.90;;;;;;5135807;27;20190;-65
2023/11/18 10:41:20;;;;;;;3.70;3.40;;;16.40;63.90;;;;;;5136047;27;20169;-64
2023/11/18 10:43:48;;;;;;;4.45;3.60;;;16.50;64.00;;;;;;5136316;27;20187;-64
2023/11/18 10:46:14;;;;;;;3.88;3.50;;;16.50;63.90;;;;;;5135271;27;20176;-64
2023/11/18 10:48:43;;;;;;;3.83;3.53;;;16.40;63.80;;;;;;5135912;27;20224;-63
2023/11/18 10:51:13;;;;;;;3.80;3.50;;;16.40;63.80;;;;;;5135559;27;20178;-64
2023/11/18 10:53:42;;;;;;;3.83;3.53;;;16.40;63.90;;;;;;5135097;27;20701;-65
2023/11/18 10:56:16;;;;;;;3.70;3.40;;;16.40;64.10;;;;;;5117726;27;20181;-64
2023/11/18 10:58:42;;;;;;;4.25;3.83;;;16.30;64.10;;;;;;5135961;27;20180;-64
2023/11/18 11:01:11;;;;;;;3.92;3.60;;;16.30;64.20;;;;;;5134874;27;20160;-64
2023/11/18 11:03:58;;;;;;;3.40;3.10;;;16.30;64.30;;;;;;5135552;27;20224;-64
2023/11/18 11:06:24;;;;;;;4.53;3.60;;;16.30;64.30;;;;;;5135896;27;20247;-65
2023/11/18 11:08:53;;;;;;;3.55;3.25;;;16.30;64.30;;;;;;5135128;27;20232;-64
2023/11/18 11:11:21;;;;;;;3.97;3.60;;;16.30;64.20;;;;;;5117382;27;20176;-65
2023/11/18 11:13:50;;;;;;;3.55;3.25;;;16.30;64.20;;;;;;5135486;27;20340;-64
2023/11/18 11:16:19;;;;;;;3.83;3.53;;;16.30;64.20;;;;;;5116356;27;20172;-64
2023/11/18 11:18:47;;;;;;;4.07;3.65;;;16.30;64.30;;;;;;5135615;27;20221;-64
2023/11/18 11:21:19;;;;;;;3.90;3.50;;;16.30;64.40;;;;;;5116439;27;20669;-65
2023/11/18 11:24:08;;;;;;;4.45;3.35;;;16.20;64.60;;;;;;5117597;27;20658;-64
2023/11/18 11:26:54;;;;;;;3.75;3.45;;;16.20;64.70;;;;;;5117632;27;20387;-64
2023/11/18 11:30:10;;;;;;;3.35;3.05;;;16.20;64.80;;;;;;5116833;27;20169;-64
2023/11/18 11:32:39;;;;;;;3.88;3.35;;;16.20;64.80;;;;;;5135152;27;20214;-64
2023/11/18 11:35:08;;;;;;;3.55;3.25;;;16.20;64.70;;;;;;5134130;27;20554;-65
2023/11/18 11:37:36;;;;;;;3.38;3.08;;;16.20;64.60;;;;;;5117159;27;20179;-64
2023/11/18 11:40:07;;;;;;;4.28;3.50;;;16.20;64.60;;;;;;5134831;27;20237;-64
2023/11/18 11:42:34;;;;;;;3.85;3.38;;;16.20;64.70;;;;;;5134418;27;20635;-64
2023/11/18 11:45:00;;;;;;;3.97;3.58;;;16.20;64.90;;;;;;5134573;27;20999;-64
2023/11/18 11:47:35;;;;;;;3.45;3.08;;;16.10;65.80;;;;;;5134886;27;20184;-64
2023/11/18 11:50:21;;;;;;;4.03;3.58;;;16.10;65.10;;;;;;5133806;27;20235;-63
2023/11/18 11:52:48;;;;;;;3.40;3.10;;;16.10;66.00;;;;;;5101806;27;20212;-64
2023/11/18 11:55:38;;;;;;;3.50;3.20;;;16.10;65.20;;;;;;5098870;27;20181;-64
2023/11/18 11:58:06;;;;;;;4.05;3.53;;;16.10;65.20;;;;;;5133928;27;20196;-64
2023/11/18 12:00:34;;;;;;;3.17;2.92;;;16.10;65.10;;;;;;5134803;27;20191;-65
2023/11/18 12:03:06;;;;;;;3.95;3.65;;;16.10;64.90;;;;;;5134451;27;20192;-65
2023/11/18 12:05:33;;;;;;;3.30;3.00;;;16.10;65.00;;;;;;5133956;27;20177;-64
2023/11/18 12:07:59;;;;;;;3.28;2.97;;;16.10;65.10;;;;;;5134198;27;20172;-64
2023/11/18 12:10:30;;;;;;;3.50;3.20;;;16.10;65.10;;;;;;5133568;27;20538;-65
2023/11/18 12:13:18;;;;;;;3.63;3.00;;;16.10;65.20;;;;;;5116588;27;20212;-64
2023/11/18 12:15:48;;;;;;;3.17;2.97;;;16.00;65.20;;;;;;5133725;27;20172;-64
2023/11/18 12:18:17;;;;;;;3.78;3.47;;;16.00;65.20;;;;;;5133331;27;20263;-64
2023/11/18 12:20:48;;;;;;;3.33;3.03;;;16.00;65.30;;;;;;5134169;27;20176;-64
2023/11/18 12:23:17;;;;;;;3.35;3.05;;;16.00;65.30;;;;;;5133792;27;20599;-64
2023/11/18 12:25:49;;;;;;;3.35;3.05;;;16.00;65.30;;;;;;5133481;27;20172;-64
2023/11/18 12:28:38;;;;;;;3.53;3.15;;;16.00;65.20;;;;;;5133806;27;20523;-64
2023/11/18 12:31:16;;;;;;;3.30;3.00;;;16.10;65.10;;;;;;5116152;27;20237;-65
2023/11/18 12:33:50;;;;;;;2.92;2.72;;;16.10;65.20;;;;;;5133849;27;20577;-65
2023/11/18 12:36:38;;;;;;;3.30;3.00;;;16.00;65.20;;;;;;5133708;27;20175;-65
2023/11/18 12:39:13;;;;;;;3.50;3.20;;;16.00;65.30;;;;;;5132906;27;20185;-64
2023/11/18 12:41:42;;;;;;;3.15;2.85;;;16.00;65.30;;;;;;5115876;27;20187;-65
2023/11/18 12:44:31;;;;;;;3.42;3.13;;;16.00;65.30;;;;;;5133742;27;20209;-64
2023/11/18 12:47:18;;;;;;;3.40;3.10;;;16.00;65.40;;;;;;5133281;27;20180;-65
2023/11/18 12:49:44;;;;;;;2.75;2.55;;;16.00;65.50;;;;;;5133442;27;20638;-64
2023/11/18 12:52:14;;;;;;;3.15;2.85;;;16.00;65.40;;;;;;5133640;27;20169;-64
2023/11/18 12:54:43;;;;;;;3.08;2.88;;;16.00;65.80;;;;;;5133163;27;20263;-65